Time;durP1;ratioP1;P1;durP2;ratioP2;P2;SDS_P1;SDS_P2;PMS_P1;PMS_P2;Temp;Humidity;BMP_temperature;BMP_pressure;BME280_temperature;BME280_humidity;BME280_pressure;Samples;Min_cycle;Max_cycle;Signal;HPM_P1;HPM_P2
2022/04/11 00:01:29;;;;;;;8.40;4.32;;;;;;;13.66;36.51;101685.63;4974977;28;20046;-67
2022/04/11 00:03:54;;;;;;;5.18;3.47;;;;;;;13.67;36.51;101691.84;4976804;28;20033;-69
2022/04/11 00:06:20;;;;;;;6.70;4.10;;;;;;;13.65;36.47;101685.75;4977112;28;20050;-67
2022/04/11 00:08:45;;;;;;;5.47;3.50;;;;;;;13.65;36.08;101683.06;4975747;28;20023;-66
2022/04/11 00:11:11;;;;;;;8.23;3.95;;;;;;;13.64;36.47;101686.72;4977135;28;20027;-66
2022/04/11 00:13:36;;;;;;;6.95;4.90;;;;;;;13.63;36.36;101685.00;4975673;28;20058;-66
2022/04/11 00:16:02;;;;;;;9.32;4.07;;;;;;;13.63;35.74;101679.63;4975890;28;20030;-67
2022/04/11 00:18:27;;;;;;;7.65;4.10;;;;;;;13.61;35.96;101674.38;4975863;28;20439;-66
2022/04/11 00:20:52;;;;;;;8.30;4.95;;;;;;;13.61;36.01;101670.81;4976893;28;20034;-67
2022/04/11 00:23:18;;;;;;;5.03;3.58;;;;;;;13.59;36.80;101665.59;4976748;28;20030;-65
2022/04/11 00:25:44;;;;;;;9.73;4.45;;;;;;;13.60;36.80;101659.19;4976887;28;20035;-67
2022/04/11 00:28:09;;;;;;;8.07;4.20;;;;;;;13.59;35.92;101662.03;4975513;28;20484;-67
2022/04/11 00:30:35;;;;;;;9.70;4.35;;;;;;;13.60;36.79;101669.09;4976821;28;20082;-66
2022/04/11 00:33:00;;;;;;;11.07;4.13;;;;;;;13.59;37.01;101659.34;4975815;28;20399;-67
2022/04/11 00:35:26;;;;;;;8.02;3.72;;;;;;;13.60;36.40;101658.34;4976613;28;20031;-66
2022/04/11 00:37:51;;;;;;;6.28;4.00;;;;;;;13.60;36.73;101659.19;4959182;28;20049;-66
2022/04/11 00:40:17;;;;;;;5.10;3.95;;;;;;;13.60;36.65;101656.50;4976598;28;20369;-66
2022/04/11 00:42:42;;;;;;;6.05;4.00;;;;;;;13.59;36.26;101652.13;4976574;28;20468;-67
2022/04/11 00:45:08;;;;;;;7.18;4.13;;;;;;;13.60;36.36;101650.25;4958062;28;20396;-67
2022/04/11 00:47:34;;;;;;;4.97;3.92;;;;;;;13.59;36.63;101653.97;4975331;28;20030;-66
2022/04/11 00:50:03;;;;;;;9.43;4.05;;;;;;;13.58;36.67;101642.34;4976367;28;20033;-66
2022/04/11 00:52:30;;;;;;;7.85;3.65;;;;;;;13.58;37.31;101641.47;4976285;28;20042;-67
2022/04/11 00:54:57;;;;;;;6.82;4.20;;;;;;;13.56;36.48;101640.75;4958890;28;20034;-67
2022/04/11 00:57:23;;;;;;;6.78;4.78;;;;;;;13.58;36.94;101644.16;4975076;28;20026;-66
2022/04/11 00:59:48;;;;;;;7.63;3.85;;;;;;;13.58;37.47;101638.78;4974668;28;20027;-67
2022/04/11 01:02:14;;;;;;;7.13;3.70;;;;;;;13.58;36.56;101630.69;4975758;28;20082;-66
2022/04/11 01:04:41;;;;;;;6.50;3.92;;;;;;;13.58;37.35;101639.63;4976251;28;20527;-66
2022/04/11 01:07:07;;;;;;;7.63;4.10;;;;;;;13.58;37.20;101628.00;4958835;28;20399;-67
2022/04/11 01:09:33;;;;;;;6.63;3.83;;;;;;;13.57;37.42;101632.53;4975904;28;20027;-66
2022/04/11 01:11:58;;;;;;;7.20;4.47;;;;;;;13.59;37.46;101635.13;4975897;28;20038;-66
2022/04/11 01:14:23;;;;;;;6.00;3.78;;;;;;;13.58;36.60;101633.41;4974760;28;20042;-66
2022/04/11 01:16:50;;;;;;;7.60;4.68;;;;;;;13.58;37.33;101628.00;4974509;28;20027;-66
2022/04/11 01:19:16;;;;;;;7.30;4.25;;;;;;;13.58;37.00;101622.63;4956650;28;20042;-66
2022/04/11 01:21:45;;;;;;;5.00;4.05;;;;;;;13.56;36.87;101616.53;4955563;29;20118;-66
2022/04/11 01:24:11;;;;;;;9.57;4.63;;;;;;;13.56;37.76;101619.22;4956330;28;20035;-67
2022/04/11 01:26:37;;;;;;;6.50;4.10;;;;;;;13.53;37.13;101611.41;4956484;28;20106;-66
2022/04/11 01:29:04;;;;;;;5.65;4.53;;;;;;;13.51;36.75;101608.00;4967970;28;20030;-66
2022/04/11 01:31:29;;;;;;;10.73;3.67;;;;;;;13.51;37.08;101608.00;4974255;28;20035;-67
2022/04/11 01:33:55;;;;;;;4.70;3.95;;;;;;;13.49;37.15;101610.78;4975729;28;20041;-67
2022/04/11 01:36:20;;;;;;;5.00;4.07;;;;;;;13.47;37.29;101609.22;4975351;28;20110;-67
2022/04/11 01:38:45;;;;;;;5.97;3.90;;;;;;;13.43;37.33;101601.41;4974402;28;20050;-67
2022/04/11 01:41:11;;;;;;;5.38;3.78;;;;;;;13.45;37.41;101608.50;4975424;28;20034;-67
2022/04/11 01:43:36;;;;;;;10.10;4.13;;;;;;;13.40;37.54;101609.72;4975059;28;20034;-66
2022/04/11 01:46:01;;;;;;;5.78;3.78;;;;;;;13.39;37.71;101605.34;4975341;28;20105;-66
2022/04/11 01:48:27;;;;;;;7.07;3.70;;;;;;;13.40;37.57;101608.88;4975322;28;20105;-67
2022/04/11 01:50:52;;;;;;;4.78;3.92;;;;;;;13.40;38.02;101608.88;4975108;28;20042;-66
2022/04/11 01:53:20;;;;;;;10.40;3.60;;;;;;;13.38;38.18;101609.00;4973916;28;20051;-66
2022/04/11 01:55:46;;;;;;;6.32;4.55;;;;;;;13.37;37.65;101606.47;4973935;28;20443;-66
2022/04/11 01:58:12;;;;;;;4.63;3.55;;;;;;;13.35;38.05;101609.25;4971030;28;20055;-66
2022/04/11 02:00:38;;;;;;;5.90;3.28;;;;;;;13.34;38.33;101610.22;4955608;28;20412;-67
2022/04/11 02:03:05;;;;;;;9.48;4.38;;;;;;;13.33;38.14;101613.94;4954604;29;20035;-67
2022/04/11 02:05:30;;;;;;;5.82;3.78;;;;;;;13.31;37.73;101618.59;4955751;28;20495;-67
2022/04/11 02:07:56;;;;;;;6.00;4.00;;;;;;;13.31;37.99;101613.22;4955683;28;20031;-66
2022/04/11 02:10:22;;;;;;;7.05;3.67;;;;;;;13.28;38.15;101610.78;4954491;29;20031;-65
2022/04/11 02:12:48;;;;;;;3.75;3.33;;;;;;;13.27;37.79;101606.34;4954484;29;20050;-67
2022/04/11 02:15:14;;;;;;;6.15;4.28;;;;;;;13.24;37.44;101603.91;4955570;28;20042;-67
2022/04/11 02:17:39;;;;;;;6.93;3.80;;;;;;;13.19;37.53;101606.13;4955481;28;20023;-67
2022/04/11 02:20:06;;;;;;;3.97;3.45;;;;;;;13.16;38.42;101600.16;4954274;29;20058;-67
2022/04/11 02:22:44;;;;;;;4.18;3.38;;;;;;;13.11;37.64;101602.38;4955544;28;20031;-66
2022/04/11 02:25:09;;;;;;;5.30;3.40;;;;;;;13.07;37.95;101603.56;4955502;28;20027;-64
2022/04/11 02:27:35;;;;;;;7.82;3.80;;;;;;;12.99;37.85;101598.81;4955438;28;20037;-67
2022/04/11 02:30:00;;;;;;;4.97;3.47;;;;;;;13.00;37.76;101605.06;4954133;28;20073;-66
2022/04/11 02:32:25;;;;;;;5.57;3.42;;;;;;;12.96;37.81;101612.50;4954164;28;20055;-66
2022/04/11 02:34:50;;;;;;;5.57;3.63;;;;;;;12.93;37.81;101610.06;4955358;28;20067;-67
2022/04/11 02:37:16;;;;;;;7.30;3.80;;;;;;;12.91;37.86;101605.81;4954109;29;20031;-66
2022/04/11 02:39:41;;;;;;;5.50;3.55;;;;;;;12.88;37.75;101603.38;4955297;28;20090;-65
2022/04/11 02:42:07;;;;;;;6.35;3.65;;;;;;;12.82;38.01;101608.25;4954031;28;20094;-65
2022/04/11 02:44:32;;;;;;;4.50;3.67;;;;;;;12.80;38.05;101604.84;4954347;29;20457;-66
2022/04/11 02:46:57;;;;;;;9.05;3.85;;;;;;;12.77;38.40;101610.47;4955414;28;20031;-66
2022/04/11 02:49:23;;;;;;;6.97;3.95;;;;;;;12.76;38.12;101602.53;4953972;29;20024;-67
2022/04/11 02:51:48;;;;;;;11.02;4.72;;;;;;;12.74;38.13;101605.34;4955155;28;20123;-67
2022/04/11 02:54:13;;;;;;;5.00;4.18;;;;;;;12.72;37.92;101609.13;4954125;29;20035;-66
2022/04/11 02:56:39;;;;;;;8.13;3.40;;;;;;;12.70;38.08;101603.03;4955226;28;20090;-66
2022/04/11 02:59:04;;;;;;;4.38;3.83;;;;;;;12.68;38.10;101594.22;4955218;28;20039;-66
2022/04/11 03:01:29;;;;;;;8.23;3.72;;;;;;;12.65;38.26;101594.47;4954836;28;20074;-66
2022/04/11 03:03:55;;;;;;;7.68;4.43;;;;;;;12.61;38.06;101588.50;4955110;28;20039;-66
2022/04/11 03:06:20;;;;;;;6.15;4.15;;;;;;;12.59;38.39;101595.00;4955079;28;20090;-66
2022/04/11 03:08:47;;;;;;;6.43;3.70;;;;;;;12.58;38.40;101593.25;4956683;28;20051;-66
2022/04/11 03:11:12;;;;;;;4.90;3.92;;;;;;;12.55;38.05;101589.00;4958992;28;20114;-66
2022/04/11 03:13:38;;;;;;;4.50;3.30;;;;;;;12.54;38.56;101597.16;4958684;28;20365;-66
2022/04/11 03:16:03;;;;;;;5.05;3.90;;;;;;;12.51;38.40;101592.88;4941455;29;20507;-66
2022/04/11 03:18:29;;;;;;;5.53;3.67;;;;;;;12.48;38.06;101595.00;4957638;29;20094;-66
2022/04/11 03:20:54;;;;;;;7.38;3.30;;;;;;;12.46;37.97;101591.56;4941946;29;20115;-67
2022/04/11 03:23:19;;;;;;;7.60;3.67;;;;;;;12.44;38.12;101596.19;4964096;28;20387;-66
2022/04/11 03:25:45;;;;;;;9.18;3.63;;;;;;;12.41;38.50;101594.63;4976784;28;20034;-66
2022/04/11 03:28:10;;;;;;;4.95;3.33;;;;;;;12.41;38.35;101596.44;4976425;28;20023;-66
2022/04/11 03:30:35;;;;;;;7.55;3.40;;;;;;;12.39;38.21;101595.72;4977785;28;20133;-66
2022/04/11 03:33:01;;;;;;;5.93;3.78;;;;;;;12.37;38.54;101595.00;4976517;28;20081;-66
2022/04/11 03:35:26;;;;;;;5.53;3.72;;;;;;;12.36;39.32;101595.97;4977742;28;20491;-67
2022/04/11 03:37:51;;;;;;;5.03;3.38;;;;;;;12.30;38.88;101594.63;4977651;28;20034;-66
2022/04/11 03:40:17;;;;;;;4.85;3.40;;;;;;;12.30;38.17;101596.44;4976464;28;20484;-66
2022/04/11 03:42:42;;;;;;;3.30;3.00;;;;;;;12.24;38.11;101590.59;4977571;28;20030;-66
2022/04/11 03:45:10;;;;;;;6.60;3.80;;;;;;;12.19;38.11;101594.59;4977535;28;20476;-66
2022/04/11 03:47:36;;;;;;;7.85;3.10;;;;;;;12.12;38.24;101596.91;4976186;28;20035;-67
2022/04/11 03:50:01;;;;;;;3.60;3.13;;;;;;;12.09;38.45;101597.16;4976296;28;20102;-67
2022/04/11 03:52:27;;;;;;;5.90;3.38;;;;;;;12.06;38.51;101594.69;4977642;28;20038;-65
2022/04/11 03:54:52;;;;;;;4.55;3.38;;;;;;;12.03;38.79;101602.16;4977422;28;20042;-67
2022/04/11 03:57:17;;;;;;;5.85;3.45;;;;;;;12.00;37.67;101603.25;4977394;28;20033;-66
2022/04/11 03:59:43;;;;;;;5.65;3.35;;;;;;;11.98;38.71;101599.81;4967346;28;20067;-66
2022/04/11 04:02:08;;;;;;;5.68;3.10;;;;;;;11.93;38.43;101593.97;4957539;28;20059;-67
2022/04/11 04:04:34;;;;;;;8.65;3.88;;;;;;;11.91;38.42;101601.28;4957809;28;20093;-66
2022/04/11 04:06:59;;;;;;;4.75;3.08;;;;;;;11.86;38.42;101592.72;4958199;28;20031;-65
2022/04/11 04:09:24;;;;;;;5.70;3.40;;;;;;;11.81;38.39;101592.22;4957899;28;20035;-66
2022/04/11 04:11:50;;;;;;;6.82;3.33;;;;;;;11.79;38.46;101596.84;4957659;28;20106;-67
2022/04/11 04:14:15;;;;;;;3.60;2.90;;;;;;;11.75;38.49;101591.84;4957567;28;20031;-66
2022/04/11 04:16:41;;;;;;;3.40;3.08;;;;;;;11.71;38.51;101601.97;4956426;29;20057;-66
2022/04/11 04:19:06;;;;;;;5.03;3.70;;;;;;;11.67;38.49;101592.38;4939813;29;20023;-66
2022/04/11 04:21:31;;;;;;;6.40;3.65;;;;;;;11.66;38.39;101588.00;4957064;28;20038;-66
2022/04/11 04:23:57;;;;;;;9.25;3.22;;;;;;;11.62;38.72;101592.75;4957735;28;20114;-66
2022/04/11 04:26:22;;;;;;;5.57;3.58;;;;;;;11.60;38.70;101594.69;4956094;28;20393;-67
2022/04/11 04:28:47;;;;;;;6.25;3.15;;;;;;;11.57;38.58;101584.19;4956224;28;20499;-66
2022/04/11 04:31:13;;;;;;;3.92;2.92;;;;;;;11.56;39.05;101586.97;4957201;28;20031;-66
2022/04/11 04:33:38;;;;;;;5.50;3.17;;;;;;;11.54;38.50;101583.56;4957573;28;20027;-66
2022/04/11 04:36:04;;;;;;;5.88;3.85;;;;;;;11.52;39.29;101585.53;4957426;28;20039;-66
2022/04/11 04:38:29;;;;;;;7.03;3.33;;;;;;;11.53;38.45;101589.94;4957500;28;20063;-66
2022/04/11 04:40:55;;;;;;;5.32;3.97;;;;;;;11.51;38.87;101594.53;4957332;28;20027;-67
2022/04/11 04:43:20;;;;;;;10.07;3.97;;;;;;;11.52;38.55;101590.88;4957206;29;20066;-66
2022/04/11 04:45:46;;;;;;;5.65;2.92;;;;;;;11.50;38.81;101576.75;4957563;28;20406;-67
2022/04/11 04:48:11;;;;;;;5.13;3.22;;;;;;;11.52;38.36;101588.19;4963903;28;20205;-65
2022/04/11 04:50:36;;;;;;;3.90;3.25;;;;;;;11.53;38.98;101581.88;4977339;28;20037;-66
2022/04/11 04:53:01;;;;;;;5.75;3.22;;;;;;;11.52;38.85;101577.47;4975348;28;20117;-66
2022/04/11 04:55:27;;;;;;;4.30;3.15;;;;;;;11.51;39.08;101570.38;4960098;28;20039;-66
2022/04/11 04:57:52;;;;;;;7.30;3.80;;;;;;;11.51;38.96;101581.97;4958992;28;20027;-67
2022/04/11 05:00:18;;;;;;;3.60;2.92;;;;;;;11.50;38.70;101577.56;4975531;28;20395;-65
2022/04/11 05:02:43;;;;;;;6.18;3.42;;;;;;;11.52;38.81;101574.78;4974897;28;20097;-66
2022/04/11 05:05:10;;;;;;;7.45;2.78;;;;;;;11.56;38.81;101587.84;4976490;28;20094;-66
2022/04/11 05:07:35;;;;;;;9.25;3.45;;;;;;;11.56;39.26;101586.97;4958989;28;20035;-66
2022/04/11 05:10:02;;;;;;;3.65;2.88;;;;;;;11.59;38.91;101581.38;4974875;28;20026;-66
2022/04/11 05:12:27;;;;;;;11.20;3.55;;;;;;;11.62;39.43;101583.84;4976326;28;20526;-66
2022/04/11 05:14:53;;;;;;;6.38;3.17;;;;;;;11.61;38.91;101582.13;4976214;28;20058;-67
2022/04/11 05:17:18;;;;;;;5.53;2.50;;;;;;;11.68;38.98;101583.38;4975992;28;20034;-66
2022/04/11 05:19:43;;;;;;;6.18;3.33;;;;;;;11.76;38.55;101583.66;4975778;28;20395;-66
2022/04/11 05:22:09;;;;;;;4.18;3.13;;;;;;;11.82;38.61;101577.81;4974410;28;20487;-66
2022/04/11 05:24:34;;;;;;;4.05;3.17;;;;;;;11.89;38.80;101568.31;4974440;28;20502;-66
2022/04/11 05:26:59;;;;;;;3.10;2.83;;;;;;;11.97;38.61;101565.03;4974466;28;20033;-66
2022/04/11 05:29:25;;;;;;;4.75;2.95;;;;;;;12.04;39.29;101556.38;4975319;28;20105;-67
2022/04/11 05:31:50;;;;;;;7.45;2.80;;;;;;;12.15;38.22;101568.94;4975083;28;20136;-67
2022/04/11 05:34:16;;;;;;;9.02;2.83;;;;;;;12.30;38.72;101574.94;4974634;28;20085;-66
2022/04/11 05:36:41;;;;;;;6.75;2.97;;;;;;;12.42;38.70;101577.53;4975368;28;20496;-66
2022/04/11 05:39:06;;;;;;;3.97;2.88;;;;;;;12.56;39.00;101573.72;4975365;28;20440;-66
2022/04/11 05:41:32;;;;;;;6.22;2.72;;;;;;;12.71;39.00;101573.34;4975436;28;20388;-66
2022/04/11 05:43:57;;;;;;;8.85;4.10;;;;;;;12.85;38.81;101567.69;4975278;28;20031;-67
2022/04/11 05:46:22;;;;;;;5.95;3.00;;;;;;;13.03;38.21;101568.03;4974929;28;20037;-67
2022/04/11 05:48:48;;;;;;;7.15;3.30;;;;;;;13.19;38.71;101568.47;4973867;28;20035;-68
2022/04/11 05:51:13;;;;;;;4.80;3.25;;;;;;;13.36;37.97;101562.53;4973897;28;20039;-67
2022/04/11 05:53:38;;;;;;;8.13;3.47;;;;;;;13.51;38.53;101567.63;4975075;28;20464;-67
2022/04/11 05:56:04;;;;;;;6.68;2.83;;;;;;;13.70;38.32;101574.00;4975118;28;20471;-66
2022/04/11 05:58:29;;;;;;;8.80;3.13;;;;;;;13.77;38.55;101560.84;4974940;28;20514;-67
2022/04/11 06:00:56;;;;;;;5.50;2.85;;;;;;;13.88;38.59;101566.16;4973514;28;20043;-68
2022/04/11 06:03:21;;;;;;;7.43;3.25;;;;;;;14.07;37.53;101563.56;4975315;28;20058;-67
2022/04/11 06:05:46;;;;;;;9.77;3.15;;;;;;;14.22;37.66;101564.94;4973963;28;20035;-67
2022/04/11 06:08:11;;;;;;;7.85;3.10;;;;;;;14.42;37.75;101558.69;4957562;28;20030;-68
2022/04/11 06:10:38;;;;;;;5.50;2.65;;;;;;;14.61;37.37;101560.59;4974993;28;20045;-67
2022/04/11 06:13:04;;;;;;;6.22;2.92;;;;;;;14.83;36.99;101554.09;4974985;28;20416;-67
2022/04/11 06:15:29;;;;;;;4.28;3.33;;;;;;;15.02;38.23;101537.94;4973557;28;20043;-67
2022/04/11 06:17:54;;;;;;;11.68;2.97;;;;;;;15.22;38.05;101539.66;4973662;28;20042;-67
2022/04/11 06:20:20;;;;;;;6.10;3.15;;;;;;;15.39;38.19;101540.81;4973903;28;20023;-67
2022/04/11 06:22:46;;;;;;;5.53;2.83;;;;;;;15.53;37.58;101546.66;4974822;28;20029;-68
2022/04/11 06:25:11;;;;;;;11.95;2.70;;;;;;;15.69;37.35;101540.66;4974584;28;20046;-67
2022/04/11 06:27:37;;;;;;;14.77;3.47;;;;;;;15.88;37.49;101537.94;4973490;28;20050;-67
2022/04/11 06:30:04;;;;;;;8.63;3.05;;;;;;;16.08;37.53;101534.16;4974518;28;20027;-67
2022/04/11 06:32:31;;;;;;;9.77;3.15;;;;;;;16.23;36.37;101538.09;4974874;28;20023;-67
2022/04/11 06:34:56;;;;;;;6.57;3.72;;;;;;;16.37;37.92;101536.75;4974503;28;20055;-67
2022/04/11 06:37:23;;;;;;;4.07;3.22;;;;;;;16.48;37.60;101535.72;4973396;28;20081;-68
2022/04/11 06:39:49;;;;;;;10.20;3.42;;;;;;;16.67;36.15;101536.50;4973374;28;20021;-67
2022/04/11 06:42:15;;;;;;;4.18;2.60;;;;;;;16.83;36.89;101535.84;4974345;28;20113;-67
2022/04/11 06:44:40;;;;;;;6.28;2.80;;;;;;;16.97;36.65;101537.19;4978053;28;20023;-67
2022/04/11 06:47:06;;;;;;;3.33;2.35;;;;;;;17.06;36.12;101541.66;4978524;28;20077;-67
2022/04/11 06:49:32;;;;;;;14.48;2.78;;;;;;;17.16;36.11;101542.44;4977145;28;20069;-66
2022/04/11 06:51:57;;;;;;;8.98;2.92;;;;;;;17.26;37.22;101532.38;4978557;28;20121;-67
2022/04/11 06:54:22;;;;;;;3.35;2.10;;;;;;;17.41;36.03;101530.84;4978709;28;20061;-67
2022/04/11 06:56:48;;;;;;;8.05;3.00;;;;;;;17.56;35.90;101534.69;4976989;28;20030;-67
2022/04/11 06:59:15;;;;;;;5.63;2.45;;;;;;;17.74;36.35;101535.53;4978103;28;20026;-67
2022/04/11 07:01:40;;;;;;;15.20;3.13;;;;;;;17.89;35.39;101535.81;4978140;28;20046;-69
2022/04/11 07:04:06;;;;;;;3.97;2.80;;;;;;;18.04;36.34;101540.47;4978461;28;20035;-67
2022/04/11 07:06:31;;;;;;;3.33;2.33;;;;;;;18.11;35.68;101535.28;4978337;28;20109;-67
2022/04/11 07:08:56;;;;;;;8.05;2.40;;;;;;;18.22;35.26;101536.84;4978398;28;20039;-67
2022/04/11 07:11:22;;;;;;;10.50;2.95;;;;;;;18.43;36.24;101534.56;4978528;28;20033;-67
2022/04/11 07:13:47;;;;;;;8.30;2.83;;;;;;;18.64;35.59;101532.34;4978071;28;20109;-67
2022/04/11 07:16:12;;;;;;;6.85;2.67;;;;;;;18.87;35.21;101533.41;4978140;28;20027;-67
2022/04/11 07:18:38;;;;;;;9.93;2.60;;;;;;;19.09;34.72;101526.53;4976837;28;20361;-67
2022/04/11 07:21:04;;;;;;;6.88;2.28;;;;;;;19.29;35.03;101527.88;4978089;28;20114;-67
2022/04/11 07:23:29;;;;;;;4.18;1.83;;;;;;;19.47;34.92;101519.63;4978151;28;20030;-67
2022/04/11 07:25:54;;;;;;;6.75;2.28;;;;;;;19.61;34.72;101521.66;4978443;28;20030;-67
2022/04/11 07:28:20;;;;;;;4.00;2.72;;;;;;;19.84;35.00;101511.78;4977982;28;20082;-67
2022/04/11 07:30:45;;;;;;;8.48;2.50;;;;;;;20.03;34.76;101514.13;4976437;28;20027;-67
2022/04/11 07:33:10;;;;;;;4.50;2.75;;;;;;;20.24;34.75;101514.41;4977854;28;20471;-66
2022/04/11 07:35:36;;;;;;;6.25;2.47;;;;;;;20.46;34.45;101506.53;4978042;28;20030;-67
2022/04/11 07:38:02;;;;;;;5.43;2.55;;;;;;;20.66;34.05;101507.81;4977385;28;20107;-67
2022/04/11 07:40:30;;;;;;;9.43;2.97;;;;;;;20.86;33.77;101503.56;4977686;28;20038;-66
2022/04/11 07:42:55;;;;;;;4.68;3.08;;;;;;;21.04;33.44;101497.84;4977005;28;20030;-67
2022/04/11 07:45:21;;;;;;;2.63;1.98;;;;;;;21.20;33.89;101495.03;4977483;28;20100;-67
2022/04/11 07:47:47;;;;;;;10.07;2.40;;;;;;;21.38;33.34;101499.13;4977752;28;20038;-68
2022/04/11 07:50:12;;;;;;;3.67;2.10;;;;;;;21.59;33.63;101500.31;4977635;28;20027;-67
2022/04/11 07:52:42;;;;;;;4.45;2.40;;;;;;;21.77;32.86;101498.13;4976547;28;20035;-67
2022/04/11 07:55:08;;;;;;;5.28;2.00;;;;;;;21.87;33.22;101490.53;4977375;28;20022;-66
2022/04/11 07:57:34;;;;;;;5.47;2.70;;;;;;;22.04;32.82;101489.34;4960317;28;20476;-66
2022/04/11 07:59:59;;;;;;;5.65;2.20;;;;;;;22.23;32.81;101485.19;4977326;28;20037;-67
2022/04/11 08:02:25;;;;;;;6.35;2.55;;;;;;;22.40;32.46;101492.16;4975779;28;20077;-67
2022/04/11 08:04:51;;;;;;;6.28;1.90;;;;;;;22.57;31.89;101490.91;4977506;28;20067;-67
2022/04/11 08:07:17;;;;;;;7.20;2.40;;;;;;;22.75;32.08;101499.56;4976325;28;20571;-67
2022/04/11 08:09:42;;;;;;;6.95;2.83;;;;;;;22.87;32.65;101486.22;4976217;28;20097;-66
2022/04/11 08:12:08;;;;;;;5.32;1.92;;;;;;;22.98;31.57;101483.00;4977134;28;20060;-67
2022/04/11 08:14:34;;;;;;;5.10;2.30;;;;;;;22.99;31.63;101479.22;4977064;28;20110;-68
2022/04/11 08:17:03;;;;;;;7.65;1.75;;;;;;;23.03;32.05;101475.91;4977026;28;20027;-66
2022/04/11 08:19:31;;;;;;;5.95;2.35;;;;;;;23.14;32.27;101471.84;4977264;28;20045;-66
2022/04/11 08:21:57;;;;;;;11.13;2.58;;;;;;;23.22;31.97;101473.56;4976822;28;20019;-66
2022/04/11 08:24:22;;;;;;;6.22;1.75;;;;;;;23.32;31.08;101468.59;4975458;28;20027;-67
2022/04/11 08:26:47;;;;;;;6.80;2.17;;;;;;;23.39;31.16;101462.22;4976911;28;20031;-67
2022/04/11 08:29:13;;;;;;;5.20;2.33;;;;;;;23.49;31.53;101446.28;4976907;28;20456;-67
2022/04/11 08:31:39;;;;;;;4.28;2.17;;;;;;;23.66;31.16;101450.44;4976936;28;20432;-66
2022/04/11 08:34:05;;;;;;;9.50;2.17;;;;;;;23.72;31.02;101444.16;4977269;28;20030;-66
2022/04/11 08:36:30;;;;;;;2.33;1.70;;;;;;;23.80;30.46;101447.78;4976909;28;20031;-67
2022/04/11 08:38:56;;;;;;;6.35;2.15;;;;;;;23.86;31.13;101449.72;4977079;28;20027;-67
2022/04/11 08:41:22;;;;;;;2.58;2.00;;;;;;;23.98;30.92;101442.66;4977090;28;20037;-67
2022/04/11 08:43:47;;;;;;;7.88;2.78;;;;;;;24.04;31.06;101448.13;4976576;28;20025;-67
2022/04/11 08:46:16;;;;;;;5.50;2.03;;;;;;;24.10;30.53;101452.00;4976878;28;20030;-67
2022/04/11 08:48:42;;;;;;;4.80;1.73;;;;;;;24.19;30.38;101450.78;4976690;28;20033;-67
2022/04/11 08:51:08;;;;;;;4.65;2.03;;;;;;;24.27;30.76;101448.72;4976301;28;20030;-66
2022/04/11 08:53:34;;;;;;;2.65;2.08;;;;;;;24.36;29.71;101446.66;4975188;28;20081;-66
2022/04/11 08:55:59;;;;;;;5.57;1.98;;;;;;;24.41;29.85;101448.78;4976271;28;20110;-67
2022/04/11 08:58:25;;;;;;;4.47;2.20;;;;;;;24.49;29.96;101445.84;4976332;28;20030;-67
2022/04/11 09:00:50;;;;;;;1.67;1.45;;;;;;;24.58;30.25;101437.25;4976675;28;20037;-66
2022/04/11 09:03:15;;;;;;;8.07;1.75;;;;;;;24.71;29.48;101444.66;4976517;28;20081;-67
2022/04/11 09:05:41;;;;;;;6.82;2.22;;;;;;;24.81;30.04;101437.78;4975785;28;20494;-66
2022/04/11 09:08:07;;;;;;;4.32;1.75;;;;;;;24.94;29.09;101433.38;4975012;28;20404;-66
2022/04/11 09:10:36;;;;;;;4.68;2.40;;;;;;;24.94;29.33;101434.22;4974982;28;20027;-67
2022/04/11 09:13:09;;;;;;;8.07;2.70;;;;;;;25.03;29.75;101438.44;4974875;28;20511;-67
2022/04/11 09:15:45;;;;;;;3.20;1.77;;;;;;;25.19;28.84;101438.03;4975444;28;20388;-66
2022/04/11 09:18:10;;;;;;;4.25;2.03;;;;;;;25.31;28.75;101430.88;4976022;28;20029;-66
2022/04/11 09:20:40;;;;;;;5.13;2.33;;;;;;;25.45;29.19;101438.06;4976024;28;20389;-66
2022/04/11 09:23:16;;;;;;;5.32;2.10;;;;;;;25.59;28.87;101430.69;4976261;28;20085;-67
2022/04/11 09:25:42;;;;;;;3.78;2.20;;;;;;;25.67;28.90;101424.97;4976109;28;20031;-67
2022/04/11 09:28:09;;;;;;;3.22;1.52;;;;;;;25.78;28.50;101427.06;4976095;28;20022;-67
2022/04/11 09:30:40;;;;;;;4.15;1.75;;;;;;;25.85;28.26;101427.06;4974206;28;20110;-67
2022/04/11 09:33:07;;;;;;;4.22;1.70;;;;;;;25.88;28.33;101411.00;4974510;28;20407;-67
2022/04/11 09:35:54;;;;;;;5.47;1.83;;;;;;;25.96;28.21;101413.50;4975810;28;20027;-66
2022/04/11 09:38:20;;;;;;;2.47;1.42;;;;;;;26.03;27.89;101406.09;4975286;28;20491;-67
2022/04/11 09:40:52;;;;;;;4.32;1.70;;;;;;;26.14;27.63;101396.38;4975452;28;20027;-67
2022/04/11 09:43:24;;;;;;;3.28;2.00;;;;;;;26.27;27.82;101398.22;4975288;28;20023;-67
2022/04/11 09:45:51;;;;;;;4.68;1.35;;;;;;;26.42;28.00;101390.53;4974074;28;20022;-66
2022/04/11 09:48:21;;;;;;;4.07;1.70;;;;;;;26.79;27.55;101380.63;4974095;28;20031;-67
2022/04/11 09:50:51;;;;;;;3.50;2.20;;;;;;;27.40;26.63;101378.00;4975032;28;20473;-66
2022/04/11 09:53:17;;;;;;;6.68;2.10;;;;;;;28.17;26.23;101378.25;4974837;28;20034;-67
2022/04/11 09:55:44;;;;;;;4.28;1.88;;;;;;;29.58;24.36;101374.84;4975153;28;20492;-66
2022/04/11 09:58:10;;;;;;;2.40;1.63;;;;;;;30.48;23.90;101379.63;4974010;28;20086;-66
2022/04/11 10:00:37;;;;;;;1.70;1.60;;;;;;;29.92;24.49;101365.72;4975086;28;20038;-66
2022/04/11 10:03:05;;;;;;;5.40;1.73;;;;;;;29.44;25.03;101366.81;4975193;28;20377;-66
2022/04/11 10:05:32;;;;;;;2.40;1.70;;;;;;;29.07;25.01;101357.03;4974091;28;20026;-66
2022/04/11 10:07:58;;;;;;;10.07;2.03;;;;;;;28.95;24.59;101355.34;4973891;28;20358;-67
2022/04/11 10:10:23;;;;;;;4.53;1.70;;;;;;;29.06;25.39;101355.38;4974124;28;20014;-66
2022/04/11 10:12:51;;;;;;;2.70;1.63;;;;;;;29.24;24.83;101359.94;4974219;28;20035;-67
2022/04/11 10:15:17;;;;;;;4.35;1.80;;;;;;;29.38;24.13;101353.13;4975026;28;20501;-67
2022/04/11 10:17:43;;;;;;;3.40;1.50;;;;;;;29.41;24.79;101353.47;4973792;28;20069;-67
2022/04/11 10:20:08;;;;;;;4.57;2.08;;;;;;;29.29;23.89;101351.78;4974881;28;20126;-66
2022/04/11 10:22:39;;;;;;;5.03;2.10;;;;;;;29.21;24.15;101350.19;4974997;28;20116;-67
2022/04/11 10:25:06;;;;;;;5.93;1.55;;;;;;;29.34;24.30;101347.22;4973976;28;20592;-67
2022/04/11 10:27:32;;;;;;;3.78;2.42;;;;;;;29.42;23.72;101338.63;4975172;28;20031;-66
2022/04/11 10:29:59;;;;;;;1.75;1.50;;;;;;;29.60;23.43;101347.81;4973786;28;20033;-67
2022/04/11 10:32:29;;;;;;;5.35;1.77;;;;;;;29.75;23.69;101339.88;4973454;28;20118;-67
2022/04/11 10:35:01;;;;;;;1.63;1.45;;;;;;;29.84;23.88;101328.25;4974864;28;20069;-67
2022/04/11 10:37:57;;;;;;;1.85;1.52;;;;;;;30.06;23.30;101325.66;4975001;28;20480;-67
2022/04/11 10:40:22;;;;;;;5.38;1.77;;;;;;;30.17;23.53;101327.56;4974556;28;20477;-67
2022/04/11 10:43:08;;;;;;;3.53;1.58;;;;;;;30.44;23.62;101327.81;4974292;28;20034;-66
2022/04/11 10:45:57;;;;;;;5.95;2.67;;;;;;;30.65;23.24;101323.50;4974796;28;20444;-66
2022/04/11 10:48:54;;;;;;;6.18;2.20;;;;;;;30.66;22.62;101319.63;4961513;28;20118;-67
2022/04/11 10:51:19;;;;;;;3.45;1.60;;;;;;;30.65;23.08;101313.28;4974324;28;20026;-66
2022/04/11 10:54:23;;;;;;;4.70;1.85;;;;;;;30.50;22.54;101305.53;4973364;28;20035;-66
2022/04/11 10:56:54;;;;;;;2.97;1.48;;;;;;;30.48;23.33;101302.19;4896213;29;20032;-67
2022/04/11 10:59:27;;;;;;;1.88;1.60;;;;;;;30.39;22.40;101306.44;4896251;29;20028;-67
2022/04/11 11:01:57;;;;;;;4.55;2.15;;;;;;;30.37;22.83;101300.34;4880341;29;20051;-67
2022/04/11 11:04:27;;;;;;;2.35;1.40;;;;;;;30.21;22.58;101298.31;4880353;29;20037;-67
2022/04/11 11:07:24;;;;;;;2.70;1.60;;;;;;;30.25;22.76;101290.38;4896057;29;20032;-67
2022/04/11 11:09:56;;;;;;;2.85;1.38;;;;;;;30.38;22.50;101282.63;4895886;29;20137;-67
2022/04/11 11:12:22;;;;;;;9.27;1.67;;;;;;;30.54;22.49;101278.25;4895938;29;20032;-67
2022/04/11 11:14:47;;;;;;;3.53;1.40;;;;;;;30.58;21.83;101271.94;4895953;29;20043;-66
2022/04/11 11:17:13;;;;;;;3.30;1.58;;;;;;;30.66;22.18;101273.44;4880424;29;20088;-67
2022/04/11 11:20:07;;;;;;;6.70;3.85;;;;;;;30.78;22.36;101262.31;4880484;29;20047;-67
2022/04/11 11:22:34;;;;;;;2.30;1.52;;;;;;;30.92;22.00;101260.88;4895801;29;20051;-67